ASA9620 PANC-PAJN
Flight info
| Callsign | ASA9620 |
|---|---|
| Flight time | 1h 12m |
| Altitude | 33000 |
| Route | NOEND CUSHI |
| Aircraft | B739/M-SDE2E3FGHIRWXY/LB1 |
Departure
| Time | 2026-04-21 08:41 |
|---|---|
| Airport | Ted Stevens Anchorage International Airport (PANC) |
Arrival
| Time | 2026-04-21 09:54 |
|---|---|
| Airport | Juneau International Airport (PAJN) |
| Time | Latitude | Longitude | Altitude | Speed | Heading |
|---|---|---|---|---|---|
| 2026-04-21 08:06 | 61.17387 | -149.98378 | 118 ft | 0 kts | 99° |
| 2026-04-21 08:31 | 61.17388 | -149.98383 | 119 ft | 3 kts | 99° |
| 2026-04-21 08:31 | 61.17393 | -149.98436 | 116 ft | 4 kts | 109° |
| 2026-04-21 08:32 | 61.17404 | -149.98487 | 115 ft | 4 kts | 120° |
| 2026-04-21 08:32 | 61.17419 | -149.98534 | 118 ft | 4 kts | 133° |
| 2026-04-21 08:32 | 61.17439 | -149.98569 | 117 ft | 4 kts | 155° |
| 2026-04-21 08:32 | 61.17460 | -149.98585 | 119 ft | 4 kts | 162° |
| 2026-04-21 08:33 | 61.17479 | -149.98599 | 117 ft | 0 kts | 162° |
| 2026-04-21 08:35 | 61.17474 | -149.98595 | 117 ft | 3 kts | 162° |
| 2026-04-21 08:35 | 61.17424 | -149.98572 | 115 ft | 10 kts | 182° |
| 2026-04-21 08:35 | 61.17358 | -149.98646 | 118 ft | 12 kts | 214° |
| 2026-04-21 08:36 | 61.17286 | -149.98750 | 119 ft | 13 kts | 213° |
| 2026-04-21 08:36 | 61.17202 | -149.98761 | 115 ft | 12 kts | 163° |
| 2026-04-21 08:36 | 61.17131 | -149.98672 | 112 ft | 12 kts | 125° |
| 2026-04-21 08:36 | 61.17118 | -149.98506 | 119 ft | 12 kts | 90° |
| 2026-04-21 08:37 | 61.17118 | -149.98334 | 120 ft | 13 kts | 90° |
| 2026-04-21 08:37 | 61.17118 | -149.98129 | 118 ft | 16 kts | 89° |
| 2026-04-21 08:37 | 61.17118 | -149.97875 | 118 ft | 19 kts | 90° |
| 2026-04-21 08:37 | 61.17118 | -149.97609 | 116 ft | 18 kts | 90° |
| 2026-04-21 08:38 | 61.17123 | -149.97353 | 117 ft | 17 kts | 85° |
| 2026-04-21 08:38 | 61.17128 | -149.97105 | 119 ft | 17 kts | 90° |
| 2026-04-21 08:38 | 61.17127 | -149.96914 | 118 ft | 11 kts | 90° |
| 2026-04-21 08:38 | 61.17081 | -149.96817 | 119 ft | 11 kts | 173° |
| 2026-04-21 08:39 | 61.17008 | -149.96815 | 119 ft | 10 kts | 180° |
| 2026-04-21 08:39 | 61.16938 | -149.96824 | 119 ft | 10 kts | 198° |
| 2026-04-21 08:39 | 61.16900 | -149.96937 | 120 ft | 10 kts | 248° |
| 2026-04-21 08:39 | 61.16875 | -149.97066 | 117 ft | 10 kts | 248° |
| 2026-04-21 08:40 | 61.16850 | -149.97191 | 120 ft | 9 kts | 248° |
| 2026-04-21 08:40 | 61.16820 | -149.97308 | 121 ft | 9 kts | 226° |
| 2026-04-21 08:40 | 61.16789 | -149.97417 | 116 ft | 9 kts | 263° |
| 2026-04-21 08:40 | 61.16788 | -149.97617 | 118 ft | 31 kts | 270° |
| 2026-04-21 08:41 | 61.16788 | -149.98554 | 119 ft | 98 kts | 270° |
| 2026-04-21 08:41 | 61.16785 | -150.00350 | 120 ft | 150 kts | 269° |
| 2026-04-21 08:41 | 61.16809 | -150.02793 | 246 ft | 181 kts | 271° |
| 2026-04-21 08:41 | 61.16858 | -150.05316 | 1012 ft | 171 kts | 265° |
| 2026-04-21 08:42 | 61.16766 | -150.07715 | 1791 ft | 164 kts | 255° |
| 2026-04-21 08:42 | 61.16459 | -150.10027 | 2220 ft | 176 kts | 231° |
| 2026-04-21 08:42 | 61.15398 | -150.11364 | 2445 ft | 194 kts | 190° |
| 2026-04-21 08:42 | 61.13997 | -150.10951 | 2758 ft | 217 kts | 157° |
| 2026-04-21 08:43 | 61.12854 | -150.08791 | 3318 ft | 235 kts | 121° |
| 2026-04-21 08:43 | 61.12534 | -150.05444 | 4031 ft | 242 kts | 92° |
| 2026-04-21 08:43 | 61.12598 | -150.01944 | 4734 ft | 246 kts | 90° |
| 2026-04-21 08:43 | 61.12683 | -149.98259 | 5139 ft | 266 kts | 90° |
| 2026-04-21 08:44 | 61.12765 | -149.94388 | 5848 ft | 273 kts | 90° |
| 2026-04-21 08:44 | 61.12838 | -149.90434 | 6623 ft | 278 kts | 90° |
| 2026-04-21 08:44 | 61.12899 | -149.86414 | 7416 ft | 280 kts | 90° |
| 2026-04-21 08:44 | 61.12951 | -149.82355 | 8205 ft | 284 kts | 90° |
| 2026-04-21 08:45 | 61.12995 | -149.78239 | 8987 ft | 288 kts | 90° |
| 2026-04-21 08:45 | 61.13034 | -149.74055 | 9744 ft | 293 kts | 89° |
| 2026-04-21 08:45 | 61.13069 | -149.69823 | 10446 ft | 299 kts | 89° |
| 2026-04-21 08:45 | 61.13101 | -149.65361 | 10652 ft | 322 kts | 89° |
| 2026-04-21 08:46 | 61.13132 | -149.60560 | 10838 ft | 345 kts | 89° |
| 2026-04-21 08:46 | 61.13161 | -149.55496 | 11212 ft | 358 kts | 89° |
| 2026-04-21 08:46 | 61.13191 | -149.50293 | 11822 ft | 364 kts | 89° |
| 2026-04-21 08:46 | 61.13221 | -149.45009 | 12405 ft | 371 kts | 89° |
| 2026-04-21 08:47 | 61.13242 | -149.39601 | 12964 ft | 379 kts | 89° |
| 2026-04-21 08:47 | 61.13262 | -149.34109 | 13656 ft | 384 kts | 89° |
| 2026-04-21 08:47 | 61.13280 | -149.28551 | 14259 ft | 389 kts | 89° |
| 2026-04-21 08:47 | 61.13296 | -149.22926 | 14835 ft | 394 kts | 89° |
| 2026-04-21 08:48 | 61.13311 | -149.17206 | 15364 ft | 400 kts | 89° |
| 2026-04-21 08:48 | 61.13324 | -149.11449 | 16101 ft | 399 kts | 89° |
| 2026-04-21 08:48 | 61.13334 | -149.05767 | 16680 ft | 404 kts | 89° |
| 2026-04-21 08:48 | 61.13342 | -148.99814 | 17154 ft | 412 kts | 89° |
| 2026-04-21 08:49 | 61.13348 | -148.93859 | 17718 ft | 417 kts | 89° |
| 2026-04-21 08:49 | 61.13351 | -148.87909 | 18261 ft | 421 kts | 89° |
| 2026-04-21 08:49 | 61.13351 | -148.81827 | 18759 ft | 424 kts | 89° |
| 2026-04-21 08:49 | 61.13348 | -148.75691 | 19231 ft | 429 kts | 89° |
| 2026-04-21 08:50 | 61.13343 | -148.69493 | 19726 ft | 432 kts | 89° |
| 2026-04-21 08:50 | 61.13336 | -148.63245 | 20235 ft | 436 kts | 89° |
| 2026-04-21 08:50 | 61.13326 | -148.56951 | 20779 ft | 439 kts | 89° |
| 2026-04-21 08:50 | 61.13305 | -148.50617 | 21250 ft | 443 kts | 91° |
| 2026-04-21 08:51 | 61.12986 | -148.44155 | 21707 ft | 448 kts | 102° |
| 2026-04-21 08:51 | 61.12163 | -148.38005 | 22211 ft | 451 kts | 108° |
| 2026-04-21 08:51 | 61.11234 | -148.31790 | 22675 ft | 454 kts | 108° |
| 2026-04-21 08:51 | 61.10297 | -148.25521 | 23106 ft | 458 kts | 108° |
| 2026-04-21 08:52 | 61.09346 | -148.19124 | 23577 ft | 462 kts | 108° |
| 2026-04-21 08:52 | 61.08403 | -148.12745 | 23958 ft | 465 kts | 108° |
| 2026-04-21 08:52 | 61.07472 | -148.06414 | 24394 ft | 467 kts | 108° |
| 2026-04-21 08:52 | 61.06515 | -147.99897 | 24830 ft | 470 kts | 108° |
| 2026-04-21 08:53 | 61.05563 | -147.93421 | 25200 ft | 472 kts | 108° |
| 2026-04-21 08:53 | 61.04605 | -147.86921 | 25613 ft | 474 kts | 108° |
| 2026-04-21 08:53 | 61.03654 | -147.80489 | 26001 ft | 477 kts | 108° |
| 2026-04-21 08:53 | 61.02680 | -147.73932 | 26387 ft | 479 kts | 108° |
| 2026-04-21 08:54 | 61.01699 | -147.67351 | 26750 ft | 482 kts | 108° |
| 2026-04-21 08:54 | 61.00707 | -147.60726 | 27116 ft | 484 kts | 108° |
| 2026-04-21 08:54 | 60.99708 | -147.54082 | 27482 ft | 487 kts | 108° |
| 2026-04-21 08:54 | 60.98687 | -147.47321 | 27846 ft | 489 kts | 108° |
| 2026-04-21 08:55 | 60.97684 | -147.40704 | 28176 ft | 492 kts | 108° |
| 2026-04-21 08:55 | 60.96660 | -147.33973 | 28523 ft | 494 kts | 108° |
| 2026-04-21 08:55 | 60.95627 | -147.27213 | 28845 ft | 496 kts | 108° |
| 2026-04-21 08:55 | 60.94586 | -147.20425 | 29189 ft | 498 kts | 108° |
| 2026-04-21 08:56 | 60.93540 | -147.13633 | 29625 ft | 498 kts | 108° |
| 2026-04-21 08:56 | 60.92492 | -147.06850 | 30106 ft | 496 kts | 108° |
| 2026-04-21 08:56 | 60.91447 | -147.00115 | 30530 ft | 494 kts | 108° |
| 2026-04-21 08:56 | 60.90401 | -146.93396 | 30919 ft | 493 kts | 108° |
| 2026-04-21 08:57 | 60.89352 | -146.86687 | 31251 ft | 493 kts | 108° |
| 2026-04-21 08:57 | 60.88299 | -146.79981 | 31549 ft | 494 kts | 108° |
| 2026-04-21 08:57 | 60.87242 | -146.73277 | 31861 ft | 493 kts | 108° |
| 2026-04-21 08:57 | 60.86184 | -146.66584 | 32200 ft | 493 kts | 108° |
| 2026-04-21 08:58 | 60.85123 | -146.59908 | 32510 ft | 493 kts | 108° |
| 2026-04-21 08:58 | 60.84059 | -146.53230 | 32797 ft | 493 kts | 108° |
| 2026-04-21 08:58 | 60.82988 | -146.46538 | 32993 ft | 495 kts | 108° |
| 2026-04-21 08:59 | 60.80832 | -146.33134 | 32957 ft | 494 kts | 109° |
| 2026-04-21 08:59 | 60.78674 | -146.19827 | 32979 ft | 491 kts | 109° |
| 2026-04-21 09:00 | 60.76512 | -146.06586 | 32967 ft | 491 kts | 109° |
| 2026-04-21 09:00 | 60.74338 | -145.93376 | 32968 ft | 489 kts | 109° |
| 2026-04-21 09:01 | 60.72153 | -145.80193 | 32972 ft | 490 kts | 109° |
| 2026-04-21 09:01 | 60.69953 | -145.67012 | 32964 ft | 491 kts | 109° |
| 2026-04-21 09:02 | 60.67739 | -145.53842 | 32960 ft | 491 kts | 109° |
| 2026-04-21 09:02 | 60.65511 | -145.40689 | 32968 ft | 491 kts | 109° |
| 2026-04-21 09:03 | 60.62139 | -145.20958 | 32956 ft | 492 kts | 109° |
| 2026-04-21 09:03 | 60.59873 | -145.07811 | 32956 ft | 492 kts | 109° |
| 2026-04-21 09:04 | 60.57590 | -144.94667 | 32953 ft | 493 kts | 110° |
| 2026-04-21 09:04 | 60.55293 | -144.81529 | 32944 ft | 493 kts | 110° |
| 2026-04-21 09:05 | 60.52981 | -144.68399 | 32960 ft | 493 kts | 110° |
| 2026-04-21 09:05 | 60.50655 | -144.55285 | 32953 ft | 494 kts | 110° |
| 2026-04-21 09:06 | 60.48316 | -144.42183 | 32957 ft | 494 kts | 110° |
| 2026-04-21 09:06 | 60.45961 | -144.29089 | 32961 ft | 494 kts | 110° |
| 2026-04-21 09:07 | 60.43592 | -144.16004 | 32965 ft | 495 kts | 110° |
| 2026-04-21 09:07 | 60.41208 | -144.02924 | 32954 ft | 496 kts | 110° |
| 2026-04-21 09:08 | 60.38807 | -143.89846 | 32949 ft | 496 kts | 110° |
| 2026-04-21 09:08 | 60.36805 | -143.79005 | 32956 ft | 496 kts | 111° |
| 2026-04-21 09:09 | 60.34378 | -143.65941 | 32967 ft | 497 kts | 111° |
| 2026-04-21 09:09 | 60.31934 | -143.52879 | 32968 ft | 498 kts | 111° |
| 2026-04-21 09:10 | 60.29475 | -143.39825 | 32966 ft | 498 kts | 111° |
| 2026-04-21 09:10 | 60.27004 | -143.26794 | 32968 ft | 498 kts | 111° |
| 2026-04-21 09:11 | 60.24515 | -143.13758 | 32967 ft | 498 kts | 111° |
| 2026-04-21 09:11 | 60.22017 | -143.00756 | 32960 ft | 498 kts | 111° |
| 2026-04-21 09:12 | 60.19508 | -142.87787 | 32964 ft | 498 kts | 111° |
| 2026-04-21 09:12 | 60.16987 | -142.74837 | 32959 ft | 497 kts | 112° |
| 2026-04-21 09:13 | 60.14457 | -142.61926 | 32959 ft | 497 kts | 112° |
| 2026-04-21 09:13 | 60.11916 | -142.49047 | 32972 ft | 496 kts | 112° |
| 2026-04-21 09:14 | 60.09365 | -142.36196 | 32977 ft | 496 kts | 112° |
| 2026-04-21 09:14 | 60.06800 | -142.23362 | 32970 ft | 496 kts | 112° |
| 2026-04-21 09:15 | 60.04227 | -142.10566 | 32975 ft | 496 kts | 112° |
| 2026-04-21 09:15 | 60.01640 | -141.97778 | 32977 ft | 496 kts | 112° |
| 2026-04-21 09:16 | 59.99043 | -141.85027 | 32979 ft | 496 kts | 112° |
| 2026-04-21 09:16 | 59.96410 | -141.72180 | 32976 ft | 497 kts | 112° |
| 2026-04-21 09:17 | 59.93798 | -141.59517 | 32975 ft | 497 kts | 113° |
| 2026-04-21 09:17 | 59.91156 | -141.46784 | 33004 ft | 497 kts | 113° |
| 2026-04-21 09:18 | 59.88496 | -141.34044 | 32982 ft | 498 kts | 113° |
| 2026-04-21 09:18 | 59.85823 | -141.21325 | 32970 ft | 498 kts | 113° |
| 2026-04-21 09:19 | 59.83138 | -141.08626 | 32973 ft | 498 kts | 114° |
| 2026-04-21 09:19 | 59.80444 | -140.95959 | 32976 ft | 498 kts | 114° |
| 2026-04-21 09:20 | 59.77738 | -140.83317 | 32969 ft | 497 kts | 114° |
| 2026-04-21 09:20 | 59.75023 | -140.70708 | 32975 ft | 497 kts | 114° |
| 2026-04-21 09:21 | 59.72298 | -140.58129 | 32974 ft | 497 kts | 114° |
| 2026-04-21 09:21 | 59.69557 | -140.45554 | 32975 ft | 497 kts | 114° |
| 2026-04-21 09:22 | 59.66806 | -140.33010 | 32965 ft | 497 kts | 114° |
| 2026-04-21 09:22 | 59.64027 | -140.20411 | 32979 ft | 496 kts | 115° |
| 2026-04-21 09:23 | 59.61256 | -140.07925 | 32978 ft | 496 kts | 115° |
| 2026-04-21 09:23 | 59.58491 | -139.95538 | 32978 ft | 496 kts | 115° |
| 2026-04-21 09:24 | 59.55695 | -139.83084 | 32981 ft | 496 kts | 115° |
| 2026-04-21 09:24 | 59.52869 | -139.70574 | 32966 ft | 496 kts | 115° |
| 2026-04-21 09:25 | 59.50050 | -139.58163 | 32977 ft | 496 kts | 115° |
| 2026-04-21 09:25 | 59.47238 | -139.45861 | 32983 ft | 496 kts | 115° |
| 2026-04-21 09:26 | 59.44394 | -139.33486 | 32984 ft | 497 kts | 116° |
| 2026-04-21 09:26 | 59.41537 | -139.21126 | 32986 ft | 497 kts | 116° |
| 2026-04-21 09:27 | 59.38667 | -139.08784 | 32984 ft | 497 kts | 116° |
| 2026-04-21 09:27 | 59.35785 | -138.96462 | 33000 ft | 497 kts | 116° |
| 2026-04-21 09:28 | 59.32888 | -138.84144 | 33009 ft | 498 kts | 116° |
| 2026-04-21 09:28 | 59.29976 | -138.71834 | 33008 ft | 498 kts | 116° |
| 2026-04-21 09:29 | 59.27053 | -138.59546 | 33001 ft | 498 kts | 116° |
| 2026-04-21 09:29 | 59.24123 | -138.47297 | 32999 ft | 497 kts | 117° |
| 2026-04-21 09:30 | 59.21184 | -138.35083 | 33018 ft | 497 kts | 117° |
| 2026-04-21 09:30 | 59.18234 | -138.22889 | 33019 ft | 497 kts | 117° |
| 2026-04-21 09:31 | 59.15262 | -138.10676 | 32532 ft | 505 kts | 117° |
| 2026-04-21 09:31 | 59.13757 | -138.04518 | 32072 ft | 500 kts | 117° |
| 2026-04-21 09:31 | 59.12264 | -137.98421 | 31496 ft | 496 kts | 117° |
| 2026-04-21 09:32 | 59.10779 | -137.92372 | 30872 ft | 494 kts | 118° |
| 2026-04-21 09:32 | 59.09302 | -137.86372 | 30365 ft | 490 kts | 118° |
| 2026-04-21 09:32 | 59.07831 | -137.80415 | 29751 ft | 488 kts | 118° |
| 2026-04-21 09:32 | 59.06363 | -137.74491 | 29146 ft | 484 kts | 118° |
| 2026-04-21 09:33 | 59.04913 | -137.68648 | 28637 ft | 478 kts | 118° |
| 2026-04-21 09:33 | 59.03471 | -137.62857 | 28108 ft | 474 kts | 119° |
| 2026-04-21 09:33 | 59.02042 | -137.57132 | 27589 ft | 470 kts | 119° |
| 2026-04-21 09:33 | 59.00621 | -137.51455 | 27078 ft | 465 kts | 119° |
| 2026-04-21 09:34 | 58.99211 | -137.45838 | 26551 ft | 461 kts | 119° |
| 2026-04-21 09:34 | 58.97815 | -137.40285 | 26088 ft | 455 kts | 120° |
| 2026-04-21 09:34 | 58.96430 | -137.34796 | 25572 ft | 451 kts | 120° |
| 2026-04-21 09:34 | 58.95058 | -137.29368 | 25106 ft | 447 kts | 120° |
| 2026-04-21 09:35 | 58.93692 | -137.23980 | 24617 ft | 444 kts | 120° |
| 2026-04-21 09:35 | 58.92331 | -137.18628 | 24154 ft | 441 kts | 121° |
| 2026-04-21 09:35 | 58.90978 | -137.13313 | 23663 ft | 439 kts | 121° |
| 2026-04-21 09:35 | 58.89629 | -137.08035 | 23122 ft | 436 kts | 120° |
| 2026-04-21 09:36 | 58.88287 | -137.02792 | 22603 ft | 434 kts | 121° |
| 2026-04-21 09:36 | 58.86949 | -136.97579 | 22128 ft | 431 kts | 121° |
| 2026-04-21 09:36 | 58.85627 | -136.92433 | 21649 ft | 426 kts | 121° |
| 2026-04-21 09:36 | 58.84314 | -136.87337 | 21209 ft | 421 kts | 121° |
| 2026-04-21 09:37 | 58.83014 | -136.82300 | 20726 ft | 417 kts | 121° |
| 2026-04-21 09:37 | 58.81730 | -136.77338 | 20312 ft | 412 kts | 121° |
| 2026-04-21 09:37 | 58.80451 | -136.72406 | 19815 ft | 410 kts | 121° |
| 2026-04-21 09:37 | 58.79180 | -136.67520 | 19398 ft | 405 kts | 121° |
| 2026-04-21 09:38 | 58.77921 | -136.62690 | 18950 ft | 402 kts | 121° |
| 2026-04-21 09:38 | 58.76667 | -136.57890 | 18525 ft | 399 kts | 121° |
| 2026-04-21 09:38 | 58.75420 | -136.53128 | 18042 ft | 397 kts | 121° |
| 2026-04-21 09:38 | 58.74179 | -136.48397 | 17537 ft | 394 kts | 121° |
| 2026-04-21 09:39 | 58.72960 | -136.43761 | 17054 ft | 392 kts | 121° |
| 2026-04-21 09:39 | 58.71720 | -136.39052 | 16607 ft | 387 kts | 121° |
| 2026-04-21 09:39 | 58.70555 | -136.34637 | 16214 ft | 382 kts | 121° |
| 2026-04-21 09:39 | 58.69357 | -136.30101 | 15748 ft | 379 kts | 121° |
| 2026-04-21 09:40 | 58.68170 | -136.25619 | 15346 ft | 375 kts | 121° |
| 2026-04-21 09:40 | 58.66990 | -136.21177 | 14912 ft | 372 kts | 121° |
| 2026-04-21 09:40 | 58.65822 | -136.16787 | 14502 ft | 369 kts | 121° |
| 2026-04-21 09:40 | 58.64658 | -136.12423 | 14087 ft | 366 kts | 121° |
| 2026-04-21 09:41 | 58.63503 | -136.08098 | 13654 ft | 363 kts | 121° |
| 2026-04-21 09:41 | 58.62339 | -136.03746 | 13217 ft | 360 kts | 121° |
| 2026-04-21 09:41 | 58.61202 | -135.99506 | 12802 ft | 356 kts | 121° |
| 2026-04-21 09:41 | 58.60072 | -135.95297 | 12400 ft | 353 kts | 121° |
| 2026-04-21 09:42 | 58.58954 | -135.91141 | 12017 ft | 349 kts | 121° |
| 2026-04-21 09:42 | 58.57844 | -135.87023 | 11621 ft | 345 kts | 121° |
| 2026-04-21 09:42 | 58.56758 | -135.82995 | 11199 ft | 335 kts | 121° |
| 2026-04-21 09:42 | 58.55707 | -135.79103 | 10819 ft | 325 kts | 121° |
| 2026-04-21 09:43 | 58.54685 | -135.75326 | 10448 ft | 315 kts | 121° |
| 2026-04-21 09:43 | 58.53699 | -135.71688 | 10350 ft | 303 kts | 121° |
| 2026-04-21 09:43 | 58.52732 | -135.68134 | 10213 ft | 299 kts | 121° |
| 2026-04-21 09:43 | 58.51785 | -135.64657 | 10095 ft | 291 kts | 121° |
| 2026-04-21 09:44 | 58.50862 | -135.61270 | 9960 ft | 284 kts | 122° |
| 2026-04-21 09:44 | 58.49948 | -135.57927 | 9597 ft | 283 kts | 122° |
| 2026-04-21 09:44 | 58.49046 | -135.54631 | 9359 ft | 279 kts | 122° |
| 2026-04-21 09:44 | 58.48158 | -135.51387 | 9084 ft | 270 kts | 122° |
| 2026-04-21 09:45 | 58.47292 | -135.48232 | 8809 ft | 267 kts | 122° |
| 2026-04-21 09:45 | 58.46429 | -135.45092 | 8518 ft | 267 kts | 122° |
| 2026-04-21 09:45 | 58.45560 | -135.41942 | 8242 ft | 270 kts | 122° |
| 2026-04-21 09:45 | 58.44689 | -135.38779 | 7944 ft | 267 kts | 122° |
| 2026-04-21 09:46 | 58.43833 | -135.35669 | 7668 ft | 261 kts | 122° |
| 2026-04-21 09:46 | 58.43003 | -135.32664 | 7378 ft | 259 kts | 122° |
| 2026-04-21 09:46 | 58.42170 | -135.29650 | 7105 ft | 256 kts | 122° |
| 2026-04-21 09:46 | 58.41347 | -135.26679 | 6816 ft | 250 kts | 122° |
| 2026-04-21 09:47 | 58.40552 | -135.23803 | 6583 ft | 238 kts | 122° |
| 2026-04-21 09:47 | 58.39811 | -135.21126 | 6300 ft | 230 kts | 122° |
| 2026-04-21 09:47 | 58.39079 | -135.18490 | 6029 ft | 225 kts | 122° |
| 2026-04-21 09:47 | 58.38375 | -135.15963 | 5884 ft | 227 kts | 122° |
| 2026-04-21 09:48 | 58.37650 | -135.13358 | 5850 ft | 219 kts | 122° |
| 2026-04-21 09:48 | 58.36955 | -135.10863 | 5518 ft | 214 kts | 122° |
| 2026-04-21 09:48 | 58.36329 | -135.08500 | 5198 ft | 214 kts | 113° |
| 2026-04-21 09:48 | 58.36121 | -135.05722 | 4860 ft | 217 kts | 90° |
| 2026-04-21 09:49 | 58.36147 | -135.02869 | 4535 ft | 214 kts | 94° |
| 2026-04-21 09:49 | 58.36100 | -135.00102 | 4223 ft | 211 kts | 94° |
| 2026-04-21 09:49 | 58.36068 | -134.97405 | 4046 ft | 202 kts | 94° |
| 2026-04-21 09:49 | 58.36049 | -134.94811 | 3912 ft | 191 kts | 94° |
| 2026-04-21 09:50 | 58.36033 | -134.92305 | 3727 ft | 188 kts | 94° |
| 2026-04-21 09:50 | 58.36017 | -134.89808 | 3704 ft | 189 kts | 94° |
| 2026-04-21 09:50 | 58.36001 | -134.87255 | 3415 ft | 196 kts | 94° |
| 2026-04-21 09:50 | 58.35992 | -134.85560 | 3230 ft | 190 kts | 94° |
| 2026-04-21 09:51 | 58.35980 | -134.83115 | 2921 ft | 180 kts | 94° |
| 2026-04-21 09:51 | 58.35968 | -134.80798 | 2628 ft | 169 kts | 95° |
| 2026-04-21 09:51 | 58.35970 | -134.78650 | 2419 ft | 161 kts | 91° |
| 2026-04-21 09:51 | 58.36117 | -134.76507 | 2260 ft | 166 kts | 83° |
| 2026-04-21 09:52 | 58.36369 | -134.74366 | 1889 ft | 165 kts | 79° |
| 2026-04-21 09:52 | 58.36650 | -134.72290 | 1547 ft | 159 kts | 79° |
| 2026-04-21 09:52 | 58.36864 | -134.70254 | 1188 ft | 156 kts | 86° |
| 2026-04-21 09:52 | 58.36885 | -134.68129 | 926 ft | 164 kts | 98° |
| 2026-04-21 09:53 | 58.36701 | -134.66001 | 703 ft | 159 kts | 109° |
| 2026-04-21 09:53 | 58.36263 | -134.64120 | 620 ft | 154 kts | 118° |
| 2026-04-21 09:53 | 58.36023 | -134.62107 | 483 ft | 161 kts | 97° |
| 2026-04-21 09:53 | 58.35843 | -134.60030 | 117 ft | 155 kts | 106° |
| 2026-04-21 09:54 | 58.35574 | -134.58175 | 32 ft | 127 kts | 105° |
| 2026-04-21 09:54 | 58.35406 | -134.56974 | 33 ft | 55 kts | 104° |
| 2026-04-21 09:54 | 58.35315 | -134.56331 | 33 ft | 48 kts | 104° |
| 2026-04-21 09:54 | 58.35238 | -134.55772 | 31 ft | 35 kts | 105° |
| 2026-04-21 09:55 | 58.35191 | -134.55438 | 30 ft | 12 kts | 104° |
| 2026-04-21 09:55 | 58.35223 | -134.55308 | 30 ft | 12 kts | 23° |
| 2026-04-21 09:55 | 58.35292 | -134.55350 | 32 ft | 11 kts | 296° |
| 2026-04-21 09:55 | 58.35313 | -134.55502 | 32 ft | 14 kts | 284° |
| 2026-04-21 09:56 | 58.35343 | -134.55731 | 32 ft | 21 kts | 285° |
| 2026-04-21 09:56 | 58.35381 | -134.55997 | 33 ft | 20 kts | 285° |
| 2026-04-21 09:56 | 58.35417 | -134.56252 | 33 ft | 20 kts | 284° |
| 2026-04-21 09:56 | 58.35450 | -134.56496 | 33 ft | 19 kts | 285° |
| 2026-04-21 09:57 | 58.35484 | -134.56735 | 33 ft | 18 kts | 285° |
| 2026-04-21 09:57 | 58.35516 | -134.56966 | 33 ft | 18 kts | 285° |
| 2026-04-21 09:57 | 58.35547 | -134.57189 | 33 ft | 17 kts | 285° |
| 2026-04-21 09:57 | 58.35577 | -134.57404 | 33 ft | 16 kts | 285° |
| 2026-04-21 09:58 | 58.35606 | -134.57610 | 34 ft | 16 kts | 285° |
| 2026-04-21 09:58 | 58.35634 | -134.57810 | 34 ft | 15 kts | 285° |
| 2026-04-21 09:58 | 58.35661 | -134.58003 | 34 ft | 15 kts | 284° |
| 2026-04-21 09:58 | 58.35685 | -134.58184 | 32 ft | 14 kts | 284° |
| 2026-04-21 09:59 | 58.35707 | -134.58285 | 33 ft | 7 kts | 319° |
| 2026-04-21 09:59 | 58.35751 | -134.58302 | 34 ft | 6 kts | 358° |
| 2026-04-21 09:59 | 58.35795 | -134.58302 | 34 ft | 6 kts | 360° |
| 2026-04-21 09:59 | 58.35832 | -134.58302 | 34 ft | 3 kts | 360° |
| 2026-04-21 10:00 | 58.35834 | -134.58302 | 34 ft | 0 kts | 359° |